KRF336 WMKK-RJTT
Flight info
| Callsign | KRF336 |
|---|---|
| Flight time | 6h 7m |
| Altitude | 37000 |
| Route | PIBOS1D PIBOS R208 IGARI/K0893F370 M765 ALDAS/K0900F360 L625 ANOKI/N0484F360 L625 ARESI/N0474F390 L625 MEVIN B462 MJC Y57 SUKBO Y571 BILLY Y21 AKSEL |
| Aircraft | A332/H-SDE3GHIJ2J3J5M1RVWXY/LB2D1 |
Departure
| Time | 2026-05-04 10:00 |
|---|---|
| Airport | Kuala Lumpur International Airport (WMKK) |
Arrival
| Time | 2026-05-04 16:07 |
|---|---|
| Airport | Tokyo Haneda International Airport (RJTT) |
| Time | Latitude | Longitude | Altitude | Speed | Heading |
|---|---|---|---|---|---|
| 2026-05-04 09:46 | 2.74810 | 101.69980 | 66 ft | 0 kts | 235° |
| 2026-05-04 09:51 | 2.74798 | 101.69962 | 66 ft | 5 kts | 236° |
| 2026-05-04 09:51 | 2.74766 | 101.69915 | 67 ft | 11 kts | 236° |
| 2026-05-04 09:51 | 2.74696 | 101.69894 | 59 ft | 12 kts | 159° |
| 2026-05-04 09:51 | 2.74620 | 101.69938 | 58 ft | 13 kts | 146° |
| 2026-05-04 09:52 | 2.74550 | 101.69989 | 59 ft | 12 kts | 145° |
| 2026-05-04 09:52 | 2.74487 | 101.70042 | 66 ft | 12 kts | 139° |
| 2026-05-04 09:52 | 2.74473 | 101.70109 | 61 ft | 9 kts | 56° |
| 2026-05-04 09:52 | 2.74503 | 101.70157 | 63 ft | 8 kts | 59° |
| 2026-05-04 09:53 | 2.74532 | 101.70205 | 63 ft | 8 kts | 56° |
| 2026-05-04 09:53 | 2.74564 | 101.70250 | 68 ft | 8 kts | 54° |
| 2026-05-04 09:53 | 2.74596 | 101.70294 | 64 ft | 8 kts | 55° |
| 2026-05-04 09:53 | 2.74625 | 101.70340 | 64 ft | 8 kts | 57° |
| 2026-05-04 09:54 | 2.74654 | 101.70385 | 66 ft | 8 kts | 57° |
| 2026-05-04 09:54 | 2.74684 | 101.70431 | 66 ft | 8 kts | 57° |
| 2026-05-04 09:54 | 2.74714 | 101.70475 | 64 ft | 8 kts | 56° |
| 2026-05-04 09:54 | 2.74776 | 101.70564 | 74 ft | 24 kts | 55° |
| 2026-05-04 09:55 | 2.74886 | 101.70725 | 75 ft | 32 kts | 55° |
| 2026-05-04 09:55 | 2.75027 | 101.70934 | 69 ft | 41 kts | 55° |
| 2026-05-04 09:55 | 2.75197 | 101.71174 | 69 ft | 42 kts | 55° |
| 2026-05-04 09:55 | 2.75355 | 101.71407 | 73 ft | 39 kts | 57° |
| 2026-05-04 09:56 | 2.75372 | 101.71506 | 74 ft | 6 kts | 132° |
| 2026-05-04 09:56 | 2.75331 | 101.71533 | 70 ft | 8 kts | 148° |
| 2026-05-04 09:56 | 2.75282 | 101.71565 | 67 ft | 9 kts | 146° |
| 2026-05-04 09:56 | 2.75231 | 101.71599 | 70 ft | 9 kts | 146° |
| 2026-05-04 09:57 | 2.75179 | 101.71634 | 75 ft | 9 kts | 146° |
| 2026-05-04 09:57 | 2.75108 | 101.71682 | 83 ft | 19 kts | 146° |
| 2026-05-04 09:57 | 2.74891 | 101.71828 | 83 ft | 43 kts | 146° |
| 2026-05-04 09:57 | 2.74647 | 101.71991 | 83 ft | 38 kts | 145° |
| 2026-05-04 09:58 | 2.74679 | 101.72115 | 90 ft | 20 kts | 51° |
| 2026-05-04 09:58 | 2.74764 | 101.72220 | 88 ft | 19 kts | 25° |
| 2026-05-04 09:58 | 2.74871 | 101.72180 | 88 ft | 17 kts | 334° |
| 2026-05-04 10:00 | 2.81766 | 101.67661 | 2785 ft | 236 kts | 326° |
| 2026-05-04 10:00 | 2.83203 | 101.66733 | 3160 ft | 254 kts | 332° |
| 2026-05-04 10:02 | 2.95607 | 101.67235 | 7538 ft | 282 kts | 30° |
| 2026-05-04 10:04 | 3.08359 | 101.74642 | 10892 ft | 343 kts | 30° |
| 2026-05-04 10:04 | 3.10440 | 101.75851 | 11506 ft | 347 kts | 31° |
| 2026-05-04 10:04 | 3.12508 | 101.77101 | 12199 ft | 347 kts | 34° |
| 2026-05-04 10:04 | 3.14479 | 101.78522 | 12805 ft | 352 kts | 39° |
| 2026-05-04 10:05 | 3.16351 | 101.80125 | 13440 ft | 355 kts | 44° |
| 2026-05-04 10:05 | 3.18099 | 101.81885 | 14027 ft | 357 kts | 48° |
| 2026-05-04 10:05 | 3.19713 | 101.83798 | 14558 ft | 361 kts | 53° |
| 2026-05-04 10:05 | 3.21175 | 101.85846 | 15166 ft | 362 kts | 57° |
| 2026-05-04 10:06 | 3.22585 | 101.87954 | 15703 ft | 366 kts | 57° |
| 2026-05-04 10:06 | 3.24021 | 101.90075 | 16259 ft | 369 kts | 57° |
| 2026-05-04 10:06 | 3.25474 | 101.92214 | 16787 ft | 373 kts | 57° |
| 2026-05-04 10:08 | 3.35370 | 102.04663 | 19790 ft | 393 kts | 43° |
| 2026-05-04 10:08 | 3.37478 | 102.06427 | 20246 ft | 398 kts | 39° |
| 2026-05-04 10:08 | 3.39729 | 102.08025 | 20713 ft | 402 kts | 34° |
| 2026-05-04 10:08 | 3.42148 | 102.09472 | 21203 ft | 405 kts | 31° |
| 2026-05-04 10:09 | 3.44617 | 102.10884 | 21678 ft | 409 kts | 31° |
| 2026-05-04 10:09 | 3.47145 | 102.12226 | 22168 ft | 413 kts | 28° |
| 2026-05-04 10:09 | 3.49687 | 102.13503 | 22664 ft | 416 kts | 28° |
| 2026-05-04 10:09 | 3.52288 | 102.14801 | 23145 ft | 420 kts | 28° |
| 2026-05-04 10:10 | 3.54917 | 102.16125 | 23602 ft | 423 kts | 28° |
| 2026-05-04 10:10 | 3.57551 | 102.17463 | 24040 ft | 426 kts | 28° |
| 2026-05-04 10:10 | 3.60193 | 102.18812 | 24486 ft | 428 kts | 28° |
| 2026-05-04 10:10 | 3.62861 | 102.20176 | 24920 ft | 430 kts | 28° |
| 2026-05-04 10:11 | 3.65530 | 102.21543 | 25339 ft | 433 kts | 28° |
| 2026-05-04 10:11 | 3.68182 | 102.22902 | 25780 ft | 436 kts | 28° |
| 2026-05-04 10:11 | 3.70884 | 102.24286 | 26217 ft | 438 kts | 28° |
| 2026-05-04 10:11 | 3.73614 | 102.25684 | 26653 ft | 441 kts | 28° |
| 2026-05-04 10:12 | 3.76347 | 102.27084 | 27093 ft | 444 kts | 28° |
| 2026-05-04 10:12 | 3.79113 | 102.28501 | 27539 ft | 446 kts | 28° |
| 2026-05-04 10:12 | 3.81879 | 102.29918 | 27973 ft | 449 kts | 28° |
| 2026-05-04 10:12 | 3.84648 | 102.31337 | 28402 ft | 452 kts | 28° |
| 2026-05-04 10:13 | 3.87450 | 102.32771 | 28833 ft | 455 kts | 28° |
| 2026-05-04 10:13 | 3.90284 | 102.34224 | 29254 ft | 458 kts | 28° |
| 2026-05-04 10:13 | 3.93123 | 102.35679 | 29690 ft | 460 kts | 28° |
| 2026-05-04 10:13 | 3.95988 | 102.37147 | 30087 ft | 463 kts | 28° |
| 2026-05-04 10:14 | 3.98834 | 102.38606 | 30483 ft | 465 kts | 28° |
| 2026-05-04 10:14 | 4.01732 | 102.40091 | 30892 ft | 468 kts | 28° |
| 2026-05-04 10:16 | 4.22372 | 102.50677 | 33309 ft | 484 kts | 27° |
| 2026-05-04 10:16 | 4.25372 | 102.52216 | 33610 ft | 485 kts | 27° |
| 2026-05-04 10:16 | 4.28377 | 102.53758 | 33940 ft | 484 kts | 27° |
| 2026-05-04 10:16 | 4.31380 | 102.55299 | 34242 ft | 483 kts | 27° |
| 2026-05-04 10:17 | 4.33355 | 102.56312 | 34440 ft | 482 kts | 27° |
| 2026-05-04 10:17 | 4.36350 | 102.57849 | 34729 ft | 482 kts | 27° |
| 2026-05-04 10:19 | 4.57110 | 102.68507 | 36735 ft | 478 kts | 27° |
| 2026-05-04 10:19 | 4.60062 | 102.70022 | 36815 ft | 476 kts | 27° |
| 2026-05-04 10:19 | 4.65980 | 102.72980 | 36850 ft | 475 kts | 26° |
| 2026-05-04 10:20 | 4.71919 | 102.75898 | 36847 ft | 475 kts | 26° |
| 2026-05-04 10:20 | 4.77847 | 102.78825 | 36856 ft | 474 kts | 26° |
| 2026-05-04 10:21 | 4.83771 | 102.81759 | 36853 ft | 474 kts | 26° |
| 2026-05-04 10:21 | 4.89683 | 102.84700 | 36859 ft | 479 kts | 26° |
| 2026-05-04 10:22 | 4.98589 | 102.89214 | 36853 ft | 477 kts | 26° |
| 2026-05-04 10:23 | 5.04509 | 102.92209 | 36848 ft | 477 kts | 26° |
| 2026-05-04 10:25 | 5.28166 | 103.04172 | 36810 ft | 476 kts | 26° |
| 2026-05-04 10:25 | 5.34092 | 103.07170 | 36809 ft | 476 kts | 26° |
| 2026-05-04 10:26 | 5.40221 | 103.09672 | 36812 ft | 476 kts | 19° |
| 2026-05-04 10:26 | 5.46462 | 103.11911 | 36810 ft | 476 kts | 20° |
| 2026-05-04 10:27 | 5.52658 | 103.14149 | 36819 ft | 477 kts | 20° |
| 2026-05-04 10:27 | 5.58950 | 103.16419 | 36836 ft | 480 kts | 20° |
| 2026-05-04 10:28 | 5.65223 | 103.18683 | 36843 ft | 478 kts | 20° |
| 2026-05-04 10:28 | 5.71494 | 103.20945 | 36849 ft | 478 kts | 20° |
| 2026-05-04 10:29 | 5.77780 | 103.23174 | 36843 ft | 478 kts | 18° |
| 2026-05-04 10:29 | 5.84126 | 103.25073 | 36849 ft | 479 kts | 17° |
| 2026-05-04 10:30 | 5.90510 | 103.26968 | 36845 ft | 478 kts | 17° |
| 2026-05-04 10:30 | 5.96873 | 103.28898 | 36860 ft | 476 kts | 17° |
| 2026-05-04 10:31 | 6.03214 | 103.30834 | 36849 ft | 475 kts | 17° |
| 2026-05-04 10:32 | 6.24798 | 103.37426 | 36841 ft | 474 kts | 17° |
| 2026-05-04 10:33 | 6.31113 | 103.39355 | 36847 ft | 474 kts | 17° |
| 2026-05-04 10:33 | 6.37438 | 103.41287 | 36844 ft | 474 kts | 17° |
| 2026-05-04 10:34 | 6.43761 | 103.43220 | 36843 ft | 475 kts | 17° |
| 2026-05-04 10:34 | 6.50079 | 103.45153 | 36845 ft | 475 kts | 17° |
| 2026-05-04 10:35 | 6.54455 | 103.46491 | 36848 ft | 475 kts | 17° |
| 2026-05-04 10:35 | 6.60756 | 103.48419 | 36849 ft | 475 kts | 17° |
| 2026-05-04 10:36 | 6.67100 | 103.50360 | 36844 ft | 476 kts | 18° |
| 2026-05-04 10:36 | 6.73449 | 103.52302 | 36844 ft | 477 kts | 18° |
| 2026-05-04 10:37 | 6.79769 | 103.54238 | 36846 ft | 477 kts | 18° |
| 2026-05-04 10:37 | 6.86127 | 103.56185 | 36856 ft | 478 kts | 18° |
| 2026-05-04 10:39 | 7.00178 | 103.69352 | 36849 ft | 474 kts | 59° |
| 2026-05-04 10:39 | 7.01885 | 103.72190 | 36849 ft | 474 kts | 59° |
| 2026-05-04 10:40 | 7.05304 | 103.77867 | 36857 ft | 474 kts | 59° |
| 2026-05-04 10:40 | 7.08720 | 103.83554 | 36857 ft | 474 kts | 59° |
| 2026-05-04 10:41 | 7.12121 | 103.89222 | 36840 ft | 475 kts | 59° |
| 2026-05-04 10:41 | 7.15545 | 103.94931 | 36845 ft | 476 kts | 59° |
| 2026-05-04 10:42 | 7.18971 | 104.00646 | 36851 ft | 477 kts | 59° |
| 2026-05-04 10:42 | 7.22401 | 104.06369 | 36855 ft | 478 kts | 59° |
| 2026-05-04 10:43 | 7.25834 | 104.12099 | 36856 ft | 478 kts | 59° |
| 2026-05-04 10:45 | 7.39456 | 104.35088 | 36862 ft | 478 kts | 59° |
| 2026-05-04 10:45 | 7.42868 | 104.40853 | 36869 ft | 478 kts | 59° |
| 2026-05-04 10:46 | 7.46258 | 104.46581 | 36872 ft | 479 kts | 59° |
| 2026-05-04 10:46 | 7.49677 | 104.52361 | 36875 ft | 479 kts | 59° |
| 2026-05-04 10:47 | 7.53090 | 104.58132 | 36872 ft | 479 kts | 59° |
| 2026-05-04 10:47 | 7.56500 | 104.63901 | 36872 ft | 479 kts | 59° |
| 2026-05-04 10:49 | 7.70117 | 104.86960 | 36868 ft | 479 kts | 59° |
| 2026-05-04 10:50 | 7.73525 | 104.92736 | 36864 ft | 479 kts | 60° |
| 2026-05-04 10:52 | 7.87136 | 105.15829 | 36857 ft | 480 kts | 60° |
| 2026-05-04 10:52 | 7.90544 | 105.21616 | 36851 ft | 480 kts | 60° |
| 2026-05-04 10:54 | 8.04095 | 105.44643 | 36851 ft | 476 kts | 60° |
| 2026-05-04 10:56 | 8.17664 | 105.67699 | 36853 ft | 474 kts | 60° |
| 2026-05-04 10:57 | 8.21018 | 105.73407 | 36855 ft | 474 kts | 60° |
| 2026-05-04 10:57 | 8.24381 | 105.79133 | 36855 ft | 474 kts | 60° |
| 2026-05-04 10:58 | 8.27743 | 105.84857 | 36854 ft | 474 kts | 60° |
| 2026-05-04 10:58 | 8.31109 | 105.90590 | 36857 ft | 474 kts | 60° |
| 2026-05-04 10:59 | 8.34470 | 105.96319 | 36871 ft | 475 kts | 60° |
| 2026-05-04 10:59 | 8.37835 | 106.02058 | 36854 ft | 473 kts | 60° |
| 2026-05-04 11:00 | 8.41161 | 106.07729 | 36870 ft | 473 kts | 60° |
| 2026-05-04 11:02 | 8.54574 | 106.30629 | 36872 ft | 473 kts | 60° |
| 2026-05-04 11:05 | 8.77536 | 106.73155 | 36858 ft | 470 kts | 68° |
| 2026-05-04 11:06 | 8.80020 | 106.79268 | 36872 ft | 470 kts | 68° |
| 2026-05-04 11:06 | 8.82480 | 106.85336 | 36855 ft | 470 kts | 69° |
| 2026-05-04 11:10 | 8.99738 | 107.28043 | 36864 ft | 467 kts | 68° |
| 2026-05-04 11:12 | 9.09564 | 107.52428 | 36880 ft | 467 kts | 68° |
| 2026-05-04 11:12 | 9.12020 | 107.58531 | 36878 ft | 467 kts | 68° |
| 2026-05-04 11:13 | 9.14458 | 107.64592 | 36891 ft | 467 kts | 68° |
| 2026-05-04 11:13 | 9.16907 | 107.70685 | 36871 ft | 466 kts | 68° |
| 2026-05-04 11:14 | 9.17320 | 107.71712 | 36862 ft | 466 kts | 68° |
| 2026-05-04 11:16 | 9.29156 | 108.01209 | 36867 ft | 470 kts | 68° |
| 2026-05-04 11:16 | 9.31608 | 108.07330 | 36872 ft | 470 kts | 68° |
| 2026-05-04 11:17 | 9.34059 | 108.13451 | 36867 ft | 470 kts | 68° |
| 2026-05-04 11:19 | 9.43847 | 108.37933 | 36871 ft | 470 kts | 68° |
| 2026-05-04 11:19 | 9.46296 | 108.44066 | 36871 ft | 469 kts | 68° |
| 2026-05-04 11:20 | 9.48747 | 108.50176 | 36869 ft | 467 kts | 68° |
| 2026-05-04 11:20 | 9.51207 | 108.56285 | 36870 ft | 468 kts | 68° |
| 2026-05-04 11:22 | 9.61010 | 108.80701 | 36886 ft | 466 kts | 68° |
| 2026-05-04 11:23 | 9.63450 | 108.86788 | 36874 ft | 466 kts | 68° |
| 2026-05-04 11:24 | 9.70870 | 109.05318 | 36885 ft | 480 kts | 68° |
| 2026-05-04 11:25 | 9.72124 | 109.08453 | 36881 ft | 479 kts | 68° |
| 2026-05-04 11:25 | 9.74609 | 109.14671 | 36882 ft | 478 kts | 68° |
| 2026-05-04 11:27 | 9.85839 | 109.42803 | 36904 ft | 478 kts | 68° |
| 2026-05-04 11:28 | 9.88332 | 109.49057 | 36902 ft | 478 kts | 68° |
| 2026-05-04 11:28 | 9.90821 | 109.55307 | 36901 ft | 478 kts | 68° |
| 2026-05-04 11:29 | 9.93309 | 109.61557 | 36903 ft | 477 kts | 68° |
| 2026-05-04 11:29 | 9.95777 | 109.67762 | 36904 ft | 477 kts | 68° |
| 2026-05-04 11:33 | 10.13302 | 110.11921 | 36905 ft | 482 kts | 68° |
| 2026-05-04 11:33 | 10.15802 | 110.18238 | 36904 ft | 482 kts | 68° |
| 2026-05-04 11:34 | 10.18301 | 110.24555 | 36906 ft | 482 kts | 68° |
| 2026-05-04 11:34 | 10.20799 | 110.30873 | 36892 ft | 482 kts | 68° |
| 2026-05-04 11:35 | 10.23294 | 110.37194 | 36903 ft | 482 kts | 68° |
| 2026-05-04 11:35 | 10.25766 | 110.43473 | 36902 ft | 482 kts | 68° |
| 2026-05-04 11:36 | 10.28256 | 110.49799 | 36888 ft | 482 kts | 68° |
| 2026-05-04 11:36 | 10.30744 | 110.56122 | 36894 ft | 483 kts | 68° |
| 2026-05-04 11:37 | 10.33237 | 110.62460 | 36891 ft | 483 kts | 68° |
| 2026-05-04 11:37 | 10.35733 | 110.68812 | 36891 ft | 483 kts | 68° |
| 2026-05-04 11:38 | 10.38221 | 110.75150 | 36893 ft | 483 kts | 68° |
| 2026-05-04 11:38 | 10.40697 | 110.81459 | 36893 ft | 483 kts | 67° |
| 2026-05-04 11:39 | 10.43179 | 110.87793 | 36911 ft | 482 kts | 67° |
| 2026-05-04 11:41 | 10.51826 | 111.09872 | 36894 ft | 481 kts | 67° |
| 2026-05-04 11:41 | 10.54276 | 111.16141 | 36896 ft | 480 kts | 67° |
| 2026-05-04 11:42 | 10.56720 | 111.22400 | 36903 ft | 478 kts | 67° |
| 2026-05-04 11:42 | 10.59192 | 111.28726 | 36898 ft | 485 kts | 67° |
| 2026-05-04 11:43 | 10.61677 | 111.35093 | 36905 ft | 483 kts | 67° |
| 2026-05-04 11:43 | 10.64154 | 111.41448 | 36903 ft | 483 kts | 67° |
| 2026-05-04 11:44 | 10.66613 | 111.47758 | 36902 ft | 483 kts | 67° |
| 2026-05-04 11:44 | 10.68901 | 111.53632 | 36907 ft | 483 kts | 67° |
| 2026-05-04 11:45 | 10.71373 | 111.59984 | 36908 ft | 483 kts | 67° |
| 2026-05-04 11:45 | 10.73845 | 111.66340 | 36905 ft | 483 kts | 67° |
| 2026-05-04 11:46 | 10.76316 | 111.72700 | 36906 ft | 483 kts | 67° |
| 2026-05-04 11:46 | 10.78741 | 111.78946 | 36910 ft | 483 kts | 67° |
| 2026-05-04 11:46 | 10.79972 | 111.82119 | 37061 ft | 482 kts | 67° |
| 2026-05-04 11:47 | 10.81200 | 111.85286 | 37438 ft | 480 kts | 67° |
| 2026-05-04 11:47 | 10.82409 | 111.88404 | 37741 ft | 480 kts | 67° |
| 2026-05-04 11:47 | 10.83649 | 111.91596 | 38009 ft | 480 kts | 67° |
| 2026-05-04 11:47 | 10.84872 | 111.94750 | 38290 ft | 480 kts | 67° |
| 2026-05-04 11:48 | 10.86099 | 111.97915 | 38567 ft | 479 kts | 67° |
| 2026-05-04 11:48 | 10.87320 | 112.01069 | 38789 ft | 479 kts | 67° |
| 2026-05-04 11:48 | 10.88522 | 112.04173 | 38860 ft | 477 kts | 68° |
| 2026-05-04 11:49 | 10.90950 | 112.10448 | 38911 ft | 476 kts | 68° |
| 2026-05-04 11:49 | 10.93391 | 112.16684 | 38904 ft | 469 kts | 64° |
| 2026-05-04 11:49 | 10.95021 | 112.19533 | 38911 ft | 466 kts | 52° |
| 2026-05-04 11:50 | 10.97149 | 112.22007 | 38912 ft | 466 kts | 42° |
| 2026-05-04 11:50 | 11.02364 | 112.25987 | 38912 ft | 467 kts | 35° |
| 2026-05-04 11:51 | 11.07649 | 112.29852 | 38912 ft | 467 kts | 36° |
| 2026-05-04 11:51 | 11.12929 | 112.33721 | 38911 ft | 468 kts | 36° |
| 2026-05-04 11:52 | 11.18180 | 112.37569 | 38914 ft | 469 kts | 35° |
| 2026-05-04 11:52 | 11.23489 | 112.41457 | 38913 ft | 471 kts | 35° |
| 2026-05-04 11:53 | 11.27934 | 112.44714 | 38912 ft | 470 kts | 35° |
| 2026-05-04 11:53 | 11.33230 | 112.48590 | 38911 ft | 473 kts | 36° |
| 2026-05-04 11:55 | 11.54553 | 112.64265 | 38915 ft | 470 kts | 35° |
| 2026-05-04 11:56 | 11.59865 | 112.68178 | 38917 ft | 471 kts | 35° |
| 2026-05-04 11:56 | 11.65141 | 112.72068 | 38917 ft | 471 kts | 35° |
| 2026-05-04 11:57 | 11.70451 | 112.75984 | 38916 ft | 471 kts | 35° |
| 2026-05-04 11:57 | 11.75772 | 112.79911 | 38911 ft | 471 kts | 35° |
| 2026-05-04 11:58 | 11.81066 | 112.83820 | 38923 ft | 472 kts | 35° |
| 2026-05-04 11:58 | 11.86384 | 112.87752 | 38919 ft | 471 kts | 35° |
| 2026-05-04 11:59 | 11.91698 | 112.91678 | 38917 ft | 470 kts | 35° |
| 2026-05-04 11:59 | 11.97006 | 112.95603 | 38921 ft | 471 kts | 35° |
| 2026-05-04 12:00 | 12.02311 | 112.99528 | 38920 ft | 471 kts | 35° |
| 2026-05-04 12:00 | 12.07617 | 113.03455 | 38922 ft | 471 kts | 35° |
| 2026-05-04 12:01 | 12.12928 | 113.07388 | 38915 ft | 472 kts | 35° |
| 2026-05-04 12:02 | 12.31502 | 113.21160 | 38923 ft | 471 kts | 35° |
| 2026-05-04 12:03 | 12.36808 | 113.25099 | 38922 ft | 471 kts | 35° |
| 2026-05-04 12:03 | 12.42117 | 113.29035 | 38925 ft | 471 kts | 35° |
| 2026-05-04 12:04 | 12.47453 | 113.32992 | 38922 ft | 478 kts | 34° |
| 2026-05-04 12:04 | 12.52831 | 113.37014 | 38920 ft | 478 kts | 34° |
| 2026-05-04 12:05 | 12.58195 | 113.40974 | 38925 ft | 478 kts | 34° |
| 2026-05-04 12:05 | 12.63585 | 113.44964 | 38924 ft | 478 kts | 34° |
| 2026-05-04 12:06 | 12.68984 | 113.48973 | 38927 ft | 479 kts | 35° |
| 2026-05-04 12:06 | 12.74385 | 113.52989 | 38928 ft | 479 kts | 34° |
| 2026-05-04 12:07 | 12.79791 | 113.57011 | 38923 ft | 480 kts | 35° |
| 2026-05-04 12:07 | 12.85205 | 113.61040 | 38926 ft | 481 kts | 34° |
| 2026-05-04 12:08 | 12.90589 | 113.65049 | 38924 ft | 482 kts | 34° |
| 2026-05-04 12:08 | 12.96008 | 113.69086 | 38937 ft | 482 kts | 34° |
| 2026-05-04 12:09 | 13.01430 | 113.73127 | 38933 ft | 481 kts | 34° |
| 2026-05-04 12:09 | 13.06851 | 113.77170 | 38931 ft | 481 kts | 34° |
| 2026-05-04 12:10 | 13.12266 | 113.81211 | 38931 ft | 481 kts | 34° |
| 2026-05-04 12:10 | 13.17687 | 113.85258 | 38934 ft | 481 kts | 35° |
| 2026-05-04 12:11 | 13.23100 | 113.89302 | 38933 ft | 482 kts | 34° |
| 2026-05-04 12:11 | 13.28523 | 113.93356 | 38936 ft | 483 kts | 34° |
| 2026-05-04 12:12 | 13.33947 | 113.97413 | 38934 ft | 482 kts | 34° |
| 2026-05-04 12:12 | 13.39317 | 114.01432 | 38932 ft | 479 kts | 34° |
| 2026-05-04 12:14 | 13.60940 | 114.17635 | 38936 ft | 482 kts | 35° |
| 2026-05-04 12:15 | 13.66359 | 114.21703 | 38935 ft | 482 kts | 34° |
| 2026-05-04 12:15 | 13.71770 | 114.25766 | 38941 ft | 481 kts | 34° |
| 2026-05-04 12:16 | 13.77169 | 114.29822 | 38935 ft | 481 kts | 34° |
| 2026-05-04 12:16 | 13.82577 | 114.33887 | 38942 ft | 481 kts | 34° |
| 2026-05-04 12:17 | 13.87990 | 114.37959 | 38948 ft | 482 kts | 35° |
| 2026-05-04 12:17 | 13.93377 | 114.42013 | 38932 ft | 484 kts | 35° |
| 2026-05-04 12:18 | 13.98614 | 114.46369 | 38938 ft | 486 kts | 45° |
| 2026-05-04 12:18 | 14.03252 | 114.51453 | 38937 ft | 487 kts | 45° |
| 2026-05-04 12:19 | 14.07915 | 114.56522 | 38938 ft | 488 kts | 45° |
| 2026-05-04 12:19 | 14.12580 | 114.61598 | 38940 ft | 488 kts | 45° |
| 2026-05-04 12:20 | 14.17243 | 114.66681 | 38939 ft | 487 kts | 45° |
| 2026-05-04 12:20 | 14.21889 | 114.71750 | 38940 ft | 487 kts | 45° |
| 2026-05-04 12:21 | 14.26550 | 114.76840 | 38940 ft | 487 kts | 45° |
| 2026-05-04 12:21 | 14.31180 | 114.81899 | 38939 ft | 486 kts | 45° |
| 2026-05-04 12:22 | 14.35819 | 114.86971 | 38942 ft | 485 kts | 45° |
| 2026-05-04 12:22 | 14.40450 | 114.92037 | 38923 ft | 485 kts | 45° |
| 2026-05-04 12:23 | 14.45075 | 114.97100 | 38925 ft | 485 kts | 45° |
| 2026-05-04 12:23 | 14.49703 | 115.02170 | 38911 ft | 485 kts | 46° |
| 2026-05-04 12:24 | 14.54344 | 115.07255 | 38940 ft | 490 kts | 46° |
| 2026-05-04 12:24 | 14.58990 | 115.12353 | 38943 ft | 488 kts | 46° |
| 2026-05-04 12:25 | 14.63660 | 115.17479 | 38943 ft | 489 kts | 46° |
| 2026-05-04 12:25 | 14.68288 | 115.22561 | 38946 ft | 489 kts | 46° |
| 2026-05-04 12:26 | 14.72947 | 115.27681 | 38944 ft | 489 kts | 46° |
| 2026-05-04 12:26 | 14.77600 | 115.32799 | 38943 ft | 489 kts | 46° |
| 2026-05-04 12:27 | 14.82261 | 115.37925 | 38930 ft | 489 kts | 46° |
| 2026-05-04 12:27 | 14.86922 | 115.43059 | 38931 ft | 489 kts | 46° |
| 2026-05-04 12:28 | 14.91582 | 115.48195 | 38930 ft | 490 kts | 46° |
| 2026-05-04 12:28 | 14.96241 | 115.53333 | 38932 ft | 490 kts | 46° |
| 2026-05-04 12:29 | 15.00872 | 115.58444 | 38931 ft | 490 kts | 46° |
| 2026-05-04 12:29 | 15.05546 | 115.63604 | 38930 ft | 490 kts | 46° |
| 2026-05-04 12:30 | 15.10207 | 115.68754 | 38934 ft | 490 kts | 46° |
| 2026-05-04 12:30 | 15.14825 | 115.73860 | 38933 ft | 491 kts | 46° |
| 2026-05-04 12:31 | 15.19439 | 115.78966 | 38930 ft | 491 kts | 46° |
| 2026-05-04 12:31 | 15.24109 | 115.84138 | 38945 ft | 491 kts | 46° |
| 2026-05-04 12:32 | 15.31108 | 115.91894 | 38937 ft | 492 kts | 46° |
| 2026-05-04 12:33 | 15.35774 | 115.97071 | 38949 ft | 491 kts | 46° |
| 2026-05-04 12:33 | 15.40408 | 116.02216 | 38954 ft | 487 kts | 46° |
| 2026-05-04 12:34 | 15.45053 | 116.07373 | 38963 ft | 497 kts | 46° |
| 2026-05-04 12:34 | 15.49767 | 116.12613 | 38963 ft | 495 kts | 46° |
| 2026-05-04 12:35 | 15.54454 | 116.17828 | 38963 ft | 495 kts | 47° |
| 2026-05-04 12:35 | 15.59160 | 116.23067 | 38958 ft | 495 kts | 47° |
| 2026-05-04 12:36 | 15.63852 | 116.28294 | 38958 ft | 495 kts | 46° |
| 2026-05-04 12:36 | 15.68539 | 116.33520 | 38944 ft | 495 kts | 46° |
| 2026-05-04 12:37 | 15.73229 | 116.38755 | 38956 ft | 495 kts | 46° |
| 2026-05-04 12:37 | 15.77917 | 116.43986 | 38945 ft | 494 kts | 46° |
| 2026-05-04 12:38 | 15.82578 | 116.49192 | 38943 ft | 495 kts | 46° |
| 2026-05-04 12:38 | 15.87265 | 116.54433 | 38940 ft | 494 kts | 46° |
| 2026-05-04 12:39 | 15.91163 | 116.58793 | 38946 ft | 495 kts | 46° |
| 2026-05-04 12:39 | 15.96624 | 116.64907 | 38944 ft | 495 kts | 46° |
| 2026-05-04 12:40 | 16.00529 | 116.69286 | 38948 ft | 496 kts | 46° |
| 2026-05-04 12:40 | 16.05987 | 116.75404 | 38948 ft | 496 kts | 46° |
| 2026-05-04 12:41 | 16.09923 | 116.79820 | 38945 ft | 496 kts | 46° |
| 2026-05-04 12:41 | 16.14578 | 116.85048 | 38942 ft | 496 kts | 46° |
| 2026-05-04 12:42 | 16.19267 | 116.90318 | 38948 ft | 496 kts | 46° |
| 2026-05-04 12:42 | 16.23969 | 116.95605 | 38956 ft | 497 kts | 46° |
| 2026-05-04 12:43 | 16.28663 | 117.00892 | 38948 ft | 497 kts | 45° |
| 2026-05-04 12:43 | 16.33360 | 117.06183 | 38949 ft | 498 kts | 45° |
| 2026-05-04 12:44 | 16.38063 | 117.11483 | 38953 ft | 498 kts | 45° |
| 2026-05-04 12:44 | 16.42735 | 117.16751 | 38952 ft | 498 kts | 45° |
| 2026-05-04 12:45 | 16.47433 | 117.22052 | 38968 ft | 497 kts | 45° |
| 2026-05-04 12:45 | 16.52120 | 117.27353 | 38958 ft | 498 kts | 45° |
| 2026-05-04 12:46 | 16.56829 | 117.32678 | 38944 ft | 498 kts | 45° |
| 2026-05-04 12:46 | 16.61527 | 117.37993 | 38946 ft | 499 kts | 45° |
| 2026-05-04 12:47 | 16.66240 | 117.43331 | 38946 ft | 499 kts | 45° |
| 2026-05-04 12:47 | 16.70941 | 117.48659 | 38946 ft | 499 kts | 46° |
| 2026-05-04 12:48 | 16.75625 | 117.53971 | 38947 ft | 500 kts | 46° |
| 2026-05-04 12:48 | 16.80333 | 117.59317 | 38949 ft | 500 kts | 46° |
| 2026-05-04 12:49 | 16.85050 | 117.64676 | 38952 ft | 500 kts | 46° |
| 2026-05-04 12:49 | 16.89728 | 117.69994 | 38952 ft | 500 kts | 46° |
| 2026-05-04 12:50 | 16.94429 | 117.75344 | 38953 ft | 500 kts | 46° |
| 2026-05-04 12:50 | 16.99139 | 117.80708 | 38955 ft | 500 kts | 46° |
| 2026-05-04 12:51 | 17.03843 | 117.86069 | 38947 ft | 500 kts | 46° |
| 2026-05-04 12:51 | 17.08552 | 117.91440 | 38954 ft | 500 kts | 46° |
| 2026-05-04 12:52 | 17.13222 | 117.96771 | 38958 ft | 500 kts | 46° |
| 2026-05-04 12:52 | 17.17919 | 118.02137 | 38953 ft | 500 kts | 46° |
| 2026-05-04 12:53 | 17.22623 | 118.07514 | 38950 ft | 500 kts | 46° |
| 2026-05-04 12:53 | 17.27321 | 118.12889 | 38944 ft | 501 kts | 46° |
| 2026-05-04 12:54 | 17.31992 | 118.18241 | 38954 ft | 501 kts | 46° |
| 2026-05-04 12:54 | 17.36699 | 118.23636 | 38954 ft | 501 kts | 46° |
| 2026-05-04 12:55 | 17.41410 | 118.29039 | 38957 ft | 501 kts | 46° |
| 2026-05-04 12:55 | 17.46105 | 118.34429 | 38955 ft | 501 kts | 46° |
| 2026-05-04 12:56 | 17.50806 | 118.39829 | 38943 ft | 501 kts | 46° |
| 2026-05-04 12:56 | 17.55508 | 118.45236 | 38944 ft | 502 kts | 46° |
| 2026-05-04 12:57 | 17.60213 | 118.50654 | 38949 ft | 502 kts | 46° |
| 2026-05-04 12:57 | 17.64893 | 118.56044 | 38950 ft | 503 kts | 46° |
| 2026-05-04 12:58 | 17.69601 | 118.61470 | 38950 ft | 503 kts | 46° |
| 2026-05-04 12:58 | 17.74306 | 118.66899 | 38955 ft | 503 kts | 46° |
| 2026-05-04 12:59 | 17.79017 | 118.72338 | 38943 ft | 504 kts | 46° |
| 2026-05-04 12:59 | 17.83739 | 118.77797 | 38946 ft | 504 kts | 46° |
| 2026-05-04 13:00 | 17.88425 | 118.83218 | 38950 ft | 504 kts | 46° |
| 2026-05-04 13:00 | 17.93140 | 118.88677 | 38951 ft | 504 kts | 46° |
| 2026-05-04 13:01 | 17.97855 | 118.94137 | 38953 ft | 505 kts | 46° |
| 2026-05-04 13:01 | 18.02572 | 118.99607 | 38948 ft | 505 kts | 46° |
| 2026-05-04 13:02 | 18.07284 | 119.05079 | 38954 ft | 505 kts | 46° |
| 2026-05-04 13:02 | 18.11994 | 119.10553 | 38945 ft | 506 kts | 46° |
| 2026-05-04 13:03 | 18.16728 | 119.16058 | 38947 ft | 507 kts | 46° |
| 2026-05-04 13:03 | 18.21454 | 119.21557 | 38953 ft | 507 kts | 46° |
| 2026-05-04 13:04 | 18.26192 | 119.27076 | 38947 ft | 507 kts | 46° |
| 2026-05-04 13:04 | 18.30919 | 119.32587 | 38951 ft | 507 kts | 46° |
| 2026-05-04 13:05 | 18.35647 | 119.38106 | 38952 ft | 508 kts | 46° |
| 2026-05-04 13:05 | 18.40348 | 119.43596 | 38958 ft | 508 kts | 46° |
| 2026-05-04 13:06 | 18.45082 | 119.49112 | 38953 ft | 507 kts | 44° |
| 2026-05-04 13:06 | 18.49787 | 119.54650 | 38948 ft | 507 kts | 46° |
| 2026-05-04 13:07 | 18.54470 | 119.60220 | 38945 ft | 507 kts | 46° |
| 2026-05-04 13:07 | 18.59187 | 119.65764 | 38958 ft | 508 kts | 46° |
| 2026-05-04 13:08 | 18.63919 | 119.71313 | 38958 ft | 508 kts | 46° |
| 2026-05-04 13:08 | 18.68644 | 119.76857 | 38960 ft | 508 kts | 46° |
| 2026-05-04 13:09 | 18.73342 | 119.82376 | 38961 ft | 508 kts | 46° |
| 2026-05-04 13:09 | 18.78061 | 119.87926 | 38968 ft | 508 kts | 46° |
| 2026-05-04 13:10 | 18.82787 | 119.93489 | 38977 ft | 508 kts | 46° |
| 2026-05-04 13:10 | 18.87509 | 119.99052 | 38966 ft | 509 kts | 46° |
| 2026-05-04 13:11 | 18.92230 | 120.04619 | 38970 ft | 509 kts | 46° |
| 2026-05-04 13:11 | 18.96951 | 120.10191 | 38964 ft | 509 kts | 46° |
| 2026-05-04 13:12 | 19.01673 | 120.15768 | 38978 ft | 509 kts | 46° |
| 2026-05-04 13:12 | 19.06361 | 120.21312 | 38979 ft | 508 kts | 46° |
| 2026-05-04 13:13 | 19.11076 | 120.26891 | 38962 ft | 509 kts | 46° |
| 2026-05-04 13:13 | 19.15804 | 120.32491 | 38962 ft | 509 kts | 46° |
| 2026-05-04 13:14 | 19.20518 | 120.38082 | 38966 ft | 509 kts | 46° |
| 2026-05-04 13:14 | 19.25229 | 120.43672 | 38976 ft | 508 kts | 46° |
| 2026-05-04 13:15 | 19.29930 | 120.49257 | 38986 ft | 508 kts | 46° |
| 2026-05-04 13:15 | 19.34629 | 120.54844 | 38985 ft | 508 kts | 46° |
| 2026-05-04 13:16 | 19.39296 | 120.60400 | 38974 ft | 508 kts | 46° |
| 2026-05-04 13:16 | 19.43988 | 120.65989 | 38973 ft | 507 kts | 46° |
| 2026-05-04 13:17 | 19.48674 | 120.71577 | 38974 ft | 507 kts | 46° |
| 2026-05-04 13:17 | 19.53364 | 120.77175 | 38975 ft | 507 kts | 46° |
| 2026-05-04 13:18 | 19.58051 | 120.82774 | 38985 ft | 508 kts | 46° |
| 2026-05-04 13:18 | 19.62746 | 120.88389 | 38985 ft | 508 kts | 46° |
| 2026-05-04 13:19 | 19.67406 | 120.93966 | 38987 ft | 508 kts | 46° |
| 2026-05-04 13:19 | 19.72095 | 120.99584 | 38994 ft | 508 kts | 46° |
| 2026-05-04 13:20 | 19.76776 | 121.05199 | 38988 ft | 507 kts | 46° |
| 2026-05-04 13:20 | 19.81456 | 121.10817 | 38994 ft | 507 kts | 46° |
| 2026-05-04 13:21 | 19.86116 | 121.16416 | 38999 ft | 507 kts | 46° |
| 2026-05-04 13:21 | 19.90796 | 121.22045 | 39001 ft | 507 kts | 46° |
| 2026-05-04 13:22 | 19.95462 | 121.27662 | 39007 ft | 507 kts | 46° |
| 2026-05-04 13:22 | 20.00146 | 121.33307 | 39008 ft | 507 kts | 46° |
| 2026-05-04 13:23 | 20.04811 | 121.38933 | 39002 ft | 507 kts | 46° |
| 2026-05-04 13:23 | 20.09480 | 121.44572 | 39002 ft | 508 kts | 46° |
| 2026-05-04 13:24 | 20.14122 | 121.50181 | 39006 ft | 508 kts | 46° |
| 2026-05-04 13:24 | 20.18790 | 121.55829 | 39015 ft | 507 kts | 47° |
| 2026-05-04 13:25 | 20.25788 | 121.64306 | 39030 ft | 507 kts | 47° |
| 2026-05-04 13:25 | 20.30446 | 121.69955 | 39012 ft | 508 kts | 47° |
| 2026-05-04 13:26 | 20.35081 | 121.75582 | 39015 ft | 508 kts | 47° |
| 2026-05-04 13:26 | 20.39752 | 121.81258 | 39018 ft | 508 kts | 47° |
| 2026-05-04 13:27 | 20.44412 | 121.86927 | 39023 ft | 508 kts | 47° |
| 2026-05-04 13:27 | 20.49068 | 121.92596 | 39031 ft | 508 kts | 47° |
| 2026-05-04 13:28 | 20.52948 | 121.97324 | 39019 ft | 509 kts | 47° |
| 2026-05-04 13:28 | 20.57618 | 122.03021 | 39021 ft | 509 kts | 47° |
| 2026-05-04 13:29 | 20.62286 | 122.08722 | 39024 ft | 509 kts | 47° |
| 2026-05-04 13:29 | 20.66917 | 122.14382 | 39036 ft | 509 kts | 47° |
| 2026-05-04 13:30 | 20.71568 | 122.20073 | 39040 ft | 509 kts | 47° |
| 2026-05-04 13:30 | 20.76222 | 122.25773 | 39025 ft | 509 kts | 47° |
| 2026-05-04 13:31 | 20.80879 | 122.31483 | 39028 ft | 509 kts | 47° |
| 2026-05-04 13:31 | 20.85524 | 122.37183 | 39040 ft | 509 kts | 47° |
| 2026-05-04 13:32 | 20.90173 | 122.42895 | 39035 ft | 508 kts | 47° |
| 2026-05-04 13:32 | 20.94813 | 122.48600 | 39024 ft | 509 kts | 47° |
| 2026-05-04 13:33 | 20.99619 | 122.54103 | 39017 ft | 508 kts | 39° |
| 2026-05-04 13:33 | 21.05245 | 122.58633 | 39026 ft | 504 kts | 29° |
| 2026-05-04 13:34 | 21.11132 | 122.62709 | 39024 ft | 504 kts | 30° |
| 2026-05-04 13:34 | 21.17018 | 122.66818 | 39056 ft | 504 kts | 30° |
| 2026-05-04 13:35 | 21.25824 | 122.72957 | 39035 ft | 505 kts | 30° |
| 2026-05-04 13:36 | 21.31715 | 122.77065 | 39037 ft | 505 kts | 30° |
| 2026-05-04 13:36 | 21.37607 | 122.81178 | 39038 ft | 506 kts | 30° |
| 2026-05-04 13:37 | 21.43509 | 122.85303 | 39037 ft | 506 kts | 30° |
| 2026-05-04 13:37 | 21.49377 | 122.89408 | 39031 ft | 507 kts | 30° |
| 2026-05-04 13:38 | 21.55285 | 122.93544 | 39049 ft | 506 kts | 30° |
| 2026-05-04 13:38 | 21.61188 | 122.97681 | 39049 ft | 506 kts | 30° |
| 2026-05-04 13:39 | 21.67079 | 123.01814 | 39046 ft | 506 kts | 30° |
| 2026-05-04 13:39 | 21.72980 | 123.05959 | 39046 ft | 506 kts | 30° |
| 2026-05-04 13:40 | 21.78881 | 123.10106 | 39047 ft | 506 kts | 30° |
| 2026-05-04 13:40 | 21.84752 | 123.14238 | 39048 ft | 505 kts | 30° |
| 2026-05-04 13:41 | 21.90638 | 123.18384 | 39057 ft | 506 kts | 30° |
| 2026-05-04 13:41 | 21.96530 | 123.22539 | 39046 ft | 506 kts | 30° |
| 2026-05-04 13:42 | 22.05322 | 123.28744 | 39049 ft | 507 kts | 30° |
| 2026-05-04 13:42 | 22.11217 | 123.32912 | 39052 ft | 507 kts | 30° |
| 2026-05-04 13:43 | 22.17130 | 123.37096 | 39048 ft | 508 kts | 29° |
| 2026-05-04 13:43 | 22.23035 | 123.41278 | 39051 ft | 508 kts | 29° |
| 2026-05-04 13:44 | 22.28960 | 123.45479 | 39056 ft | 509 kts | 29° |
| 2026-05-04 13:44 | 22.34871 | 123.49674 | 39058 ft | 509 kts | 29° |
| 2026-05-04 13:45 | 22.40810 | 123.53895 | 39054 ft | 510 kts | 29° |
| 2026-05-04 13:45 | 22.46759 | 123.58125 | 39065 ft | 511 kts | 29° |
| 2026-05-04 13:46 | 22.52663 | 123.62328 | 39062 ft | 512 kts | 29° |
| 2026-05-04 13:46 | 22.58614 | 123.66569 | 39074 ft | 512 kts | 29° |
| 2026-05-04 13:47 | 22.64585 | 123.70831 | 39071 ft | 513 kts | 29° |
| 2026-05-04 13:47 | 22.70551 | 123.75091 | 39073 ft | 513 kts | 29° |
| 2026-05-04 13:48 | 22.76508 | 123.79349 | 39077 ft | 514 kts | 29° |
| 2026-05-04 13:48 | 22.82444 | 123.83596 | 39090 ft | 514 kts | 29° |
| 2026-05-04 13:49 | 22.88418 | 123.87879 | 39074 ft | 515 kts | 29° |
| 2026-05-04 13:49 | 22.94395 | 123.92166 | 39078 ft | 515 kts | 29° |
| 2026-05-04 13:50 | 23.00371 | 123.96457 | 39084 ft | 515 kts | 29° |
| 2026-05-04 13:50 | 23.06306 | 124.00801 | 39107 ft | 515 kts | 30° |
| 2026-05-04 13:51 | 23.12252 | 124.05207 | 39091 ft | 516 kts | 29° |
| 2026-05-04 13:51 | 23.18202 | 124.09606 | 39089 ft | 517 kts | 29° |
| 2026-05-04 13:52 | 23.27127 | 124.16205 | 39095 ft | 517 kts | 29° |
| 2026-05-04 13:53 | 23.33035 | 124.20578 | 39087 ft | 519 kts | 29° |
| 2026-05-04 13:53 | 23.39022 | 124.25017 | 39103 ft | 519 kts | 29° |
| 2026-05-04 13:54 | 23.47974 | 124.31666 | 39107 ft | 519 kts | 29° |
| 2026-05-04 13:55 | 23.56931 | 124.38330 | 39105 ft | 520 kts | 29° |
| 2026-05-04 13:55 | 23.65874 | 124.44994 | 39114 ft | 521 kts | 29° |
| 2026-05-04 13:56 | 23.70478 | 124.48429 | 39114 ft | 521 kts | 29° |
| 2026-05-04 13:57 | 23.79451 | 124.55134 | 39114 ft | 521 kts | 29° |
| 2026-05-04 13:58 | 23.91439 | 124.64109 | 39118 ft | 522 kts | 29° |
| 2026-05-04 13:58 | 24.00391 | 124.70824 | 39121 ft | 522 kts | 29° |
| 2026-05-04 13:59 | 24.06370 | 124.75315 | 39116 ft | 521 kts | 30° |
| 2026-05-04 14:00 | 24.15342 | 124.82064 | 39132 ft | 521 kts | 30° |
| 2026-05-04 14:00 | 24.24311 | 124.88824 | 39117 ft | 522 kts | 29° |
| 2026-05-04 14:01 | 24.30310 | 124.93351 | 39123 ft | 523 kts | 29° |
| 2026-05-04 14:02 | 24.39262 | 125.00117 | 39138 ft | 523 kts | 30° |
| 2026-05-04 14:02 | 24.45265 | 125.04661 | 39121 ft | 524 kts | 30° |
| 2026-05-04 14:03 | 24.51265 | 125.09208 | 39126 ft | 524 kts | 30° |
| 2026-05-04 14:03 | 24.57270 | 125.13763 | 39132 ft | 524 kts | 30° |
| 2026-05-04 14:04 | 24.66278 | 125.20608 | 39100 ft | 526 kts | 29° |
| 2026-05-04 14:04 | 24.72304 | 125.25197 | 39081 ft | 527 kts | 31° |
| 2026-05-04 14:05 | 24.77820 | 125.30608 | 39105 ft | 536 kts | 45° |
| 2026-05-04 14:05 | 24.80178 | 125.33806 | 39106 ft | 539 kts | 52° |
| 2026-05-04 14:06 | 24.84188 | 125.40742 | 39095 ft | 541 kts | 56° |
| 2026-05-04 14:06 | 24.88185 | 125.47769 | 39106 ft | 542 kts | 56° |
| 2026-05-04 14:07 | 24.92180 | 125.54815 | 39125 ft | 542 kts | 56° |
| 2026-05-04 14:07 | 24.96162 | 125.61864 | 39140 ft | 542 kts | 56° |
| 2026-05-04 14:08 | 25.00144 | 125.68927 | 39141 ft | 542 kts | 56° |
| 2026-05-04 14:08 | 25.04106 | 125.75965 | 39133 ft | 542 kts | 56° |
| 2026-05-04 14:09 | 25.10067 | 125.86569 | 39146 ft | 542 kts | 56° |
| 2026-05-04 14:10 | 25.16030 | 125.97203 | 39158 ft | 543 kts | 56° |
| 2026-05-04 14:10 | 25.19983 | 126.04266 | 39154 ft | 543 kts | 56° |
| 2026-05-04 14:11 | 25.23956 | 126.11375 | 39147 ft | 543 kts | 56° |
| 2026-05-04 14:11 | 25.29908 | 126.22046 | 39152 ft | 543 kts | 56° |
| 2026-05-04 14:12 | 25.33858 | 126.29140 | 39155 ft | 543 kts | 56° |
| 2026-05-04 14:13 | 25.39777 | 126.39792 | 39151 ft | 543 kts | 56° |
| 2026-05-04 14:13 | 25.43733 | 126.46922 | 39149 ft | 543 kts | 56° |
| 2026-05-04 14:14 | 25.47013 | 126.52844 | 39152 ft | 542 kts | 56° |
| 2026-05-04 14:14 | 25.52919 | 126.63569 | 39150 ft | 543 kts | 56° |
| 2026-05-04 14:15 | 25.60748 | 126.77851 | 39158 ft | 543 kts | 56° |
| 2026-05-04 14:16 | 25.66608 | 126.88564 | 39145 ft | 544 kts | 56° |
| 2026-05-04 14:17 | 25.72493 | 126.99349 | 39134 ft | 545 kts | 56° |
| 2026-05-04 14:18 | 25.78363 | 127.10128 | 39153 ft | 544 kts | 56° |
| 2026-05-04 14:19 | 25.86188 | 127.24542 | 39140 ft | 544 kts | 56° |
| 2026-05-04 14:19 | 25.90084 | 127.31734 | 39160 ft | 543 kts | 57° |
| 2026-05-04 14:20 | 25.93944 | 127.38878 | 39159 ft | 543 kts | 57° |
| 2026-05-04 14:20 | 25.97828 | 127.46078 | 39156 ft | 543 kts | 56° |
| 2026-05-04 14:21 | 26.03654 | 127.56898 | 39138 ft | 543 kts | 57° |
| 2026-05-04 14:21 | 26.07531 | 127.64112 | 39131 ft | 543 kts | 57° |
| 2026-05-04 14:22 | 26.11404 | 127.71329 | 39131 ft | 543 kts | 57° |
| 2026-05-04 14:22 | 26.15541 | 127.78340 | 39163 ft | 540 kts | 47° |
| 2026-05-04 14:23 | 26.20677 | 127.84344 | 39168 ft | 533 kts | 36° |
| 2026-05-04 14:23 | 26.23515 | 127.86979 | 39167 ft | 532 kts | 34° |
| 2026-05-04 14:24 | 26.29154 | 127.92243 | 39166 ft | 532 kts | 35° |
| 2026-05-04 14:24 | 26.34841 | 127.97573 | 39160 ft | 533 kts | 34° |
| 2026-05-04 14:25 | 26.40522 | 128.02893 | 39167 ft | 533 kts | 34° |
| 2026-05-04 14:25 | 26.49049 | 128.10888 | 39205 ft | 533 kts | 35° |
| 2026-05-04 14:26 | 26.54706 | 128.16201 | 39171 ft | 535 kts | 34° |
| 2026-05-04 14:26 | 26.60404 | 128.21558 | 39182 ft | 535 kts | 34° |
| 2026-05-04 14:27 | 26.66101 | 128.26922 | 39182 ft | 535 kts | 34° |
| 2026-05-04 14:27 | 26.71798 | 128.32295 | 39175 ft | 535 kts | 34° |
| 2026-05-04 14:28 | 26.77456 | 128.37637 | 39165 ft | 536 kts | 34° |
| 2026-05-04 14:28 | 26.83169 | 128.43039 | 39155 ft | 536 kts | 34° |
| 2026-05-04 14:29 | 26.94585 | 128.53855 | 39179 ft | 539 kts | 34° |
| 2026-05-04 14:30 | 27.00284 | 128.59265 | 39179 ft | 539 kts | 34° |
| 2026-05-04 14:31 | 27.08873 | 128.67434 | 39174 ft | 540 kts | 34° |
| 2026-05-04 14:32 | 27.20345 | 128.78370 | 39178 ft | 541 kts | 34° |
| 2026-05-04 14:32 | 27.26083 | 128.83854 | 39175 ft | 542 kts | 34° |
| 2026-05-04 14:33 | 27.31795 | 128.89317 | 39161 ft | 543 kts | 34° |
| 2026-05-04 14:33 | 27.37555 | 128.94835 | 39178 ft | 542 kts | 34° |
| 2026-05-04 14:34 | 27.43296 | 129.00343 | 39169 ft | 543 kts | 34° |
| 2026-05-04 14:34 | 27.49042 | 129.05865 | 39172 ft | 543 kts | 34° |
| 2026-05-04 14:35 | 27.54526 | 129.11705 | 39172 ft | 550 kts | 44° |
| 2026-05-04 14:35 | 27.59412 | 129.18364 | 39174 ft | 550 kts | 46° |
| 2026-05-04 14:36 | 27.64304 | 129.24997 | 39178 ft | 550 kts | 46° |
| 2026-05-04 14:36 | 27.69206 | 129.31658 | 39178 ft | 550 kts | 46° |
| 2026-05-04 14:37 | 27.74098 | 129.38331 | 39196 ft | 550 kts | 46° |
| 2026-05-04 14:37 | 27.78939 | 129.44948 | 39170 ft | 551 kts | 46° |
| 2026-05-04 14:38 | 27.83824 | 129.51636 | 39168 ft | 551 kts | 46° |
| 2026-05-04 14:38 | 27.88702 | 129.58323 | 39151 ft | 552 kts | 46° |
| 2026-05-04 14:39 | 27.93579 | 129.65020 | 39167 ft | 552 kts | 46° |
| 2026-05-04 14:39 | 27.98465 | 129.71741 | 39164 ft | 552 kts | 46° |
| 2026-05-04 14:40 | 28.05759 | 129.81793 | 39163 ft | 553 kts | 46° |
| 2026-05-04 14:40 | 28.10640 | 129.88532 | 39158 ft | 553 kts | 46° |
| 2026-05-04 14:41 | 28.15524 | 129.95286 | 39141 ft | 553 kts | 46° |
| 2026-05-04 14:42 | 28.25335 | 130.08883 | 39144 ft | 564 kts | 46° |
| 2026-05-04 14:42 | 28.30298 | 130.15778 | 39149 ft | 571 kts | 46° |
| 2026-05-04 14:43 | 28.35326 | 130.22779 | 39184 ft | 571 kts | 46° |
| 2026-05-04 14:43 | 28.40362 | 130.29803 | 39151 ft | 572 kts | 47° |
| 2026-05-04 14:44 | 28.45385 | 130.36818 | 39150 ft | 572 kts | 47° |
| 2026-05-04 14:44 | 28.50404 | 130.43840 | 39179 ft | 572 kts | 47° |
| 2026-05-04 14:45 | 28.55415 | 130.50860 | 39153 ft | 572 kts | 47° |
| 2026-05-04 14:45 | 28.60421 | 130.57887 | 39152 ft | 572 kts | 47° |
| 2026-05-04 14:46 | 28.65446 | 130.64951 | 39183 ft | 573 kts | 47° |
| 2026-05-04 14:46 | 28.70454 | 130.72001 | 39149 ft | 576 kts | 47° |
| 2026-05-04 14:47 | 28.75479 | 130.79093 | 39151 ft | 576 kts | 47° |
| 2026-05-04 14:47 | 28.80513 | 130.86207 | 39173 ft | 577 kts | 47° |
| 2026-05-04 14:48 | 28.85562 | 130.93351 | 39146 ft | 577 kts | 47° |
| 2026-05-04 14:48 | 28.90610 | 131.00511 | 39154 ft | 577 kts | 47° |
| 2026-05-04 14:49 | 28.95605 | 131.07606 | 39175 ft | 579 kts | 47° |
| 2026-05-04 14:49 | 29.00657 | 131.14793 | 39134 ft | 579 kts | 47° |
| 2026-05-04 14:50 | 29.05704 | 131.21989 | 39154 ft | 579 kts | 47° |
| 2026-05-04 14:50 | 29.10739 | 131.29176 | 39154 ft | 579 kts | 47° |
| 2026-05-04 14:51 | 29.15732 | 131.36318 | 39147 ft | 578 kts | 47° |
| 2026-05-04 14:51 | 29.20741 | 131.43496 | 39154 ft | 577 kts | 47° |
| 2026-05-04 14:52 | 29.25762 | 131.50700 | 39156 ft | 579 kts | 47° |
| 2026-05-04 14:52 | 29.30781 | 131.57916 | 39138 ft | 578 kts | 47° |
| 2026-05-04 14:53 | 29.35781 | 131.65119 | 39151 ft | 577 kts | 47° |
| 2026-05-04 14:53 | 29.40791 | 131.72345 | 39151 ft | 580 kts | 48° |
| 2026-05-04 14:54 | 29.45805 | 131.79593 | 39144 ft | 579 kts | 48° |
| 2026-05-04 14:54 | 29.50782 | 131.86800 | 39149 ft | 579 kts | 48° |
| 2026-05-04 14:55 | 29.55793 | 131.94067 | 39146 ft | 580 kts | 48° |
| 2026-05-04 14:55 | 29.60795 | 132.01334 | 39138 ft | 579 kts | 48° |
| 2026-05-04 14:56 | 29.65797 | 132.08609 | 39166 ft | 580 kts | 48° |
| 2026-05-04 14:56 | 29.70909 | 132.15820 | 39144 ft | 581 kts | 47° |
| 2026-05-04 14:57 | 29.76051 | 132.22986 | 39131 ft | 579 kts | 47° |
| 2026-05-04 14:57 | 29.81153 | 132.30142 | 39125 ft | 582 kts | 47° |
| 2026-05-04 14:58 | 29.86286 | 132.37369 | 39120 ft | 582 kts | 47° |
| 2026-05-04 14:58 | 29.90549 | 132.43383 | 39134 ft | 581 kts | 47° |
| 2026-05-04 14:59 | 29.96511 | 132.51807 | 39126 ft | 583 kts | 47° |
| 2026-05-04 15:00 | 30.04194 | 132.62690 | 39122 ft | 582 kts | 47° |
| 2026-05-04 15:00 | 30.09323 | 132.69971 | 39131 ft | 585 kts | 47° |
| 2026-05-04 15:01 | 30.16994 | 132.80885 | 39127 ft | 584 kts | 47° |
| 2026-05-04 15:01 | 30.22124 | 132.88201 | 39129 ft | 586 kts | 47° |
| 2026-05-04 15:02 | 30.27233 | 132.95500 | 39127 ft | 587 kts | 47° |
| 2026-05-04 15:02 | 30.32368 | 133.02850 | 39125 ft | 586 kts | 47° |
| 2026-05-04 15:03 | 30.37511 | 133.10224 | 39127 ft | 589 kts | 47° |
| 2026-05-04 15:03 | 30.41791 | 133.16373 | 39127 ft | 589 kts | 47° |
| 2026-05-04 15:04 | 30.47770 | 133.24977 | 39118 ft | 588 kts | 47° |
| 2026-05-04 15:04 | 30.52064 | 133.31168 | 39128 ft | 587 kts | 47° |
| 2026-05-04 15:05 | 30.57185 | 133.38564 | 39126 ft | 588 kts | 47° |
| 2026-05-04 15:05 | 30.62271 | 133.45922 | 39125 ft | 587 kts | 48° |
| 2026-05-04 15:06 | 30.67387 | 133.53340 | 39126 ft | 587 kts | 48° |
| 2026-05-04 15:07 | 30.75058 | 133.64485 | 39109 ft | 590 kts | 48° |
| 2026-05-04 15:07 | 30.80186 | 133.71953 | 39121 ft | 589 kts | 48° |
| 2026-05-04 15:08 | 30.85303 | 133.79418 | 39120 ft | 592 kts | 48° |
| 2026-05-04 15:08 | 30.90394 | 133.86858 | 39129 ft | 593 kts | 48° |
| 2026-05-04 15:09 | 30.95525 | 133.94369 | 39126 ft | 593 kts | 48° |
| 2026-05-04 15:09 | 31.00674 | 134.01922 | 39116 ft | 595 kts | 48° |
| 2026-05-04 15:10 | 31.08384 | 134.13259 | 39126 ft | 594 kts | 48° |
| 2026-05-04 15:11 | 31.16115 | 134.24658 | 39109 ft | 596 kts | 48° |
| 2026-05-04 15:11 | 31.21216 | 134.32200 | 39157 ft | 596 kts | 48° |
| 2026-05-04 15:12 | 31.26370 | 134.39832 | 39111 ft | 597 kts | 48° |
| 2026-05-04 15:12 | 31.31508 | 134.47459 | 39112 ft | 595 kts | 48° |
| 2026-05-04 15:13 | 31.36642 | 134.55091 | 39109 ft | 597 kts | 49° |
| 2026-05-04 15:13 | 31.41750 | 134.62701 | 39091 ft | 597 kts | 49° |
| 2026-05-04 15:14 | 31.46874 | 134.70352 | 39106 ft | 599 kts | 49° |
| 2026-05-04 15:14 | 31.52016 | 134.78042 | 39102 ft | 599 kts | 49° |
| 2026-05-04 15:15 | 31.57154 | 134.85744 | 39136 ft | 599 kts | 49° |
| 2026-05-04 15:15 | 31.62291 | 134.93458 | 39103 ft | 601 kts | 49° |
| 2026-05-04 15:16 | 31.70001 | 135.05067 | 39101 ft | 600 kts | 49° |
| 2026-05-04 15:17 | 31.78172 | 135.16058 | 39100 ft | 598 kts | 44° |
| 2026-05-04 15:17 | 31.86547 | 135.26967 | 39100 ft | 598 kts | 44° |
| 2026-05-04 15:18 | 31.92079 | 135.34199 | 39097 ft | 598 kts | 44° |
| 2026-05-04 15:19 | 32.00417 | 135.45126 | 39102 ft | 598 kts | 44° |
| 2026-05-04 15:19 | 32.08757 | 135.56087 | 39097 ft | 598 kts | 44° |
| 2026-05-04 15:20 | 32.14327 | 135.63425 | 39094 ft | 599 kts | 44° |
| 2026-05-04 15:20 | 32.19882 | 135.70759 | 39094 ft | 599 kts | 44° |
| 2026-05-04 15:21 | 32.25439 | 135.78109 | 39101 ft | 599 kts | 44° |
| 2026-05-04 15:22 | 32.33768 | 135.89153 | 39087 ft | 600 kts | 44° |
| 2026-05-04 15:22 | 32.41947 | 136.00037 | 38945 ft | 587 kts | 44° |
| 2026-05-04 15:23 | 32.44676 | 136.03675 | 38662 ft | 581 kts | 44° |
| 2026-05-04 15:23 | 32.47331 | 136.07210 | 38096 ft | 581 kts | 44° |
| 2026-05-04 15:23 | 32.50022 | 136.10794 | 37433 ft | 582 kts | 44° |
| 2026-05-04 15:23 | 32.52715 | 136.14385 | 36806 ft | 584 kts | 44° |
| 2026-05-04 15:24 | 32.58113 | 136.21596 | 35961 ft | 586 kts | 45° |
| 2026-05-04 15:24 | 32.63558 | 136.28886 | 35384 ft | 592 kts | 45° |
| 2026-05-04 15:25 | 32.66286 | 136.32545 | 35103 ft | 592 kts | 45° |
| 2026-05-04 15:25 | 32.69025 | 136.36224 | 34849 ft | 592 kts | 45° |
| 2026-05-04 15:25 | 32.71727 | 136.39854 | 34602 ft | 595 kts | 45° |
| 2026-05-04 15:26 | 32.77217 | 136.47241 | 34035 ft | 597 kts | 46° |
| 2026-05-04 15:26 | 32.79967 | 136.50950 | 33702 ft | 597 kts | 46° |
| 2026-05-04 15:26 | 32.85461 | 136.58370 | 33087 ft | 595 kts | 46° |
| 2026-05-04 15:27 | 32.88189 | 136.62058 | 32786 ft | 595 kts | 46° |
| 2026-05-04 15:27 | 32.93653 | 136.69455 | 32182 ft | 594 kts | 46° |
| 2026-05-04 15:28 | 32.99108 | 136.76845 | 31593 ft | 592 kts | 46° |
| 2026-05-04 15:28 | 33.01787 | 136.80479 | 31302 ft | 589 kts | 46° |
| 2026-05-04 15:28 | 33.07148 | 136.87765 | 30738 ft | 581 kts | 47° |
| 2026-05-04 15:29 | 33.09811 | 136.91389 | 30462 ft | 579 kts | 47° |
| 2026-05-04 15:30 | 33.20334 | 137.05751 | 29258 ft | 574 kts | 46° |
| 2026-05-04 15:30 | 33.28124 | 137.16420 | 29059 ft | 569 kts | 46° |
| 2026-05-04 15:31 | 33.35925 | 137.27136 | 29058 ft | 569 kts | 46° |
| 2026-05-04 15:32 | 33.48915 | 137.45055 | 29056 ft | 570 kts | 46° |
| 2026-05-04 15:34 | 33.61633 | 137.63219 | 29047 ft | 572 kts | 57° |
| 2026-05-04 15:34 | 33.67431 | 137.75755 | 29040 ft | 572 kts | 61° |
| 2026-05-04 15:35 | 33.71271 | 137.84128 | 28738 ft | 572 kts | 62° |
| 2026-05-04 15:35 | 33.73190 | 137.88327 | 28417 ft | 571 kts | 61° |
| 2026-05-04 15:35 | 33.75086 | 137.92486 | 28102 ft | 566 kts | 61° |
| 2026-05-04 15:36 | 33.78841 | 138.00735 | 27494 ft | 559 kts | 61° |
| 2026-05-04 15:36 | 33.80708 | 138.04844 | 27201 ft | 558 kts | 61° |
| 2026-05-04 15:36 | 33.82537 | 138.08873 | 26891 ft | 555 kts | 61° |
| 2026-05-04 15:37 | 33.84384 | 138.12947 | 26586 ft | 552 kts | 61° |
| 2026-05-04 15:37 | 33.86210 | 138.16981 | 26177 ft | 548 kts | 61° |
| 2026-05-04 15:37 | 33.88029 | 138.21005 | 25738 ft | 545 kts | 60° |
| 2026-05-04 15:37 | 33.89835 | 138.25004 | 25301 ft | 541 kts | 60° |
| 2026-05-04 15:38 | 33.91632 | 138.28989 | 24896 ft | 538 kts | 60° |
| 2026-05-04 15:38 | 33.93400 | 138.32941 | 24487 ft | 534 kts | 60° |
| 2026-05-04 15:38 | 33.95149 | 138.36877 | 24073 ft | 531 kts | 60° |
| 2026-05-04 15:38 | 33.96882 | 138.40782 | 23668 ft | 528 kts | 60° |
| 2026-05-04 15:39 | 33.98606 | 138.44669 | 23241 ft | 524 kts | 60° |
| 2026-05-04 15:39 | 34.00320 | 138.48530 | 22804 ft | 519 kts | 60° |
| 2026-05-04 15:39 | 34.03663 | 138.56069 | 22020 ft | 507 kts | 60° |
| 2026-05-04 15:40 | 34.05318 | 138.59809 | 21603 ft | 502 kts | 60° |
| 2026-05-04 15:40 | 34.06950 | 138.63500 | 21207 ft | 496 kts | 60° |
| 2026-05-04 15:40 | 34.08561 | 138.67146 | 20786 ft | 491 kts | 61° |
| 2026-05-04 15:40 | 34.10168 | 138.70788 | 20376 ft | 486 kts | 61° |
| 2026-05-04 15:41 | 34.11747 | 138.74370 | 19962 ft | 481 kts | 61° |
| 2026-05-04 15:41 | 34.13293 | 138.77883 | 19564 ft | 475 kts | 61° |
| 2026-05-04 15:41 | 34.14833 | 138.81384 | 19220 ft | 468 kts | 61° |
| 2026-05-04 15:41 | 34.16346 | 138.84827 | 19122 ft | 464 kts | 61° |
| 2026-05-04 15:42 | 34.17865 | 138.88287 | 19035 ft | 469 kts | 61° |
| 2026-05-04 15:42 | 34.19401 | 138.91788 | 18928 ft | 469 kts | 61° |
| 2026-05-04 15:42 | 34.20922 | 138.95261 | 18932 ft | 467 kts | 62° |
| 2026-05-04 15:42 | 34.22433 | 138.98713 | 18841 ft | 465 kts | 62° |
| 2026-05-04 15:43 | 34.23945 | 139.02171 | 18571 ft | 463 kts | 62° |
| 2026-05-04 15:43 | 34.25436 | 139.05585 | 18246 ft | 458 kts | 62° |
| 2026-05-04 15:43 | 34.26922 | 139.08990 | 17745 ft | 453 kts | 62° |
| 2026-05-04 15:43 | 34.28362 | 139.12318 | 17132 ft | 452 kts | 64° |
| 2026-05-04 15:44 | 34.29592 | 139.15798 | 16595 ft | 448 kts | 68° |
| 2026-05-04 15:44 | 34.30796 | 139.19309 | 16086 ft | 444 kts | 67° |
| 2026-05-04 15:44 | 34.31982 | 139.22742 | 15578 ft | 441 kts | 67° |
| 2026-05-04 15:44 | 34.33145 | 139.26105 | 15068 ft | 437 kts | 66° |
| 2026-05-04 15:45 | 34.34315 | 139.29494 | 14578 ft | 434 kts | 66° |
| 2026-05-04 15:45 | 34.35468 | 139.32842 | 14261 ft | 426 kts | 66° |
| 2026-05-04 15:45 | 34.36612 | 139.36164 | 14166 ft | 432 kts | 66° |
| 2026-05-04 15:45 | 34.37766 | 139.39518 | 14064 ft | 432 kts | 66° |
| 2026-05-04 15:46 | 34.38918 | 139.42873 | 13974 ft | 430 kts | 66° |
| 2026-05-04 15:46 | 34.40063 | 139.46212 | 13909 ft | 428 kts | 66° |
| 2026-05-04 15:46 | 34.41206 | 139.49550 | 13658 ft | 427 kts | 66° |
| 2026-05-04 15:46 | 34.42339 | 139.52860 | 13334 ft | 423 kts | 66° |
| 2026-05-04 15:47 | 34.43451 | 139.56115 | 13017 ft | 422 kts | 66° |
| 2026-05-04 15:47 | 34.44571 | 139.59394 | 12716 ft | 420 kts | 66° |
| 2026-05-04 15:47 | 34.45674 | 139.62629 | 12423 ft | 416 kts | 66° |
| 2026-05-04 15:47 | 34.46783 | 139.65884 | 12120 ft | 413 kts | 66° |
| 2026-05-04 15:48 | 34.47888 | 139.69068 | 11825 ft | 409 kts | 62° |
| 2026-05-04 15:48 | 34.49481 | 139.71884 | 11520 ft | 398 kts | 41° |
| 2026-05-04 15:48 | 34.53909 | 139.75562 | 10946 ft | 383 kts | 25° |
| 2026-05-04 15:49 | 34.56190 | 139.77217 | 10653 ft | 381 kts | 25° |
| 2026-05-04 15:49 | 34.58454 | 139.78874 | 10371 ft | 378 kts | 25° |
| 2026-05-04 15:49 | 34.60693 | 139.80521 | 10090 ft | 375 kts | 25° |
| 2026-05-04 15:49 | 34.62916 | 139.82158 | 9812 ft | 373 kts | 25° |
| 2026-05-04 15:50 | 34.65131 | 139.83789 | 9493 ft | 370 kts | 26° |
| 2026-05-04 15:50 | 34.66610 | 139.84781 | 9277 ft | 364 kts | 19° |
| 2026-05-04 15:50 | 34.68961 | 139.85796 | 8972 ft | 356 kts | 8° |
| 2026-05-04 15:50 | 34.72161 | 139.86354 | 8529 ft | 347 kts | 0° |
| 2026-05-04 15:51 | 34.74542 | 139.86668 | 8088 ft | 342 kts | 2° |
| 2026-05-04 15:51 | 34.76907 | 139.86996 | 7846 ft | 342 kts | 3° |
| 2026-05-04 15:51 | 34.79279 | 139.87333 | 7647 ft | 343 kts | 4° |
| 2026-05-04 15:51 | 34.80849 | 139.87557 | 7510 ft | 341 kts | 4° |
| 2026-05-04 15:52 | 34.83236 | 139.87898 | 7313 ft | 341 kts | 4° |
| 2026-05-04 15:52 | 34.85554 | 139.88228 | 7119 ft | 340 kts | 5° |
| 2026-05-04 15:52 | 34.87906 | 139.88563 | 6925 ft | 340 kts | 5° |
| 2026-05-04 15:52 | 34.90254 | 139.88897 | 6727 ft | 339 kts | 5° |
| 2026-05-04 15:53 | 34.92594 | 139.89222 | 6536 ft | 339 kts | 4° |
| 2026-05-04 15:53 | 34.94952 | 139.89227 | 6348 ft | 337 kts | 353° |
| 2026-05-04 15:53 | 34.97233 | 139.88739 | 6135 ft | 327 kts | 343° |
| 2026-05-04 15:53 | 34.99429 | 139.88011 | 6031 ft | 328 kts | 343° |
| 2026-05-04 15:54 | 35.01633 | 139.87307 | 6019 ft | 328 kts | 344° |
| 2026-05-04 15:54 | 35.03855 | 139.86609 | 6017 ft | 327 kts | 344° |
| 2026-05-04 15:54 | 35.06006 | 139.85937 | 5999 ft | 309 kts | 344° |
| 2026-05-04 15:54 | 35.08017 | 139.85309 | 6012 ft | 286 kts | 344° |
| 2026-05-04 15:55 | 35.09847 | 139.84736 | 5992 ft | 263 kts | 344° |
| 2026-05-04 15:55 | 35.11553 | 139.84201 | 6013 ft | 242 kts | 343° |
| 2026-05-04 15:55 | 35.13122 | 139.83716 | 6013 ft | 223 kts | 342° |
| 2026-05-04 15:55 | 35.14609 | 139.83251 | 6020 ft | 223 kts | 341° |
| 2026-05-04 15:56 | 35.16098 | 139.82778 | 6019 ft | 214 kts | 341° |
| 2026-05-04 15:56 | 35.17482 | 139.82343 | 5998 ft | 196 kts | 341° |
| 2026-05-04 15:56 | 35.18768 | 139.81939 | 6018 ft | 190 kts | 341° |
| 2026-05-04 15:56 | 35.20052 | 139.81527 | 6011 ft | 190 kts | 341° |
| 2026-05-04 15:57 | 35.21330 | 139.81119 | 5999 ft | 189 kts | 341° |
| 2026-05-04 15:57 | 35.22589 | 139.80718 | 5994 ft | 189 kts | 341° |
| 2026-05-04 15:57 | 35.23860 | 139.80313 | 5920 ft | 188 kts | 341° |
| 2026-05-04 15:57 | 35.25115 | 139.79915 | 5719 ft | 182 kts | 341° |
| 2026-05-04 15:58 | 35.26276 | 139.79551 | 5666 ft | 164 kts | 341° |
| 2026-05-04 15:58 | 35.27353 | 139.79212 | 5347 ft | 158 kts | 341° |
| 2026-05-04 15:58 | 35.28420 | 139.78868 | 4949 ft | 159 kts | 341° |
| 2026-05-04 15:58 | 35.29467 | 139.78544 | 4665 ft | 148 kts | 339° |
| 2026-05-04 15:59 | 35.30419 | 139.78252 | 4384 ft | 136 kts | 338° |
| 2026-05-04 15:59 | 35.31332 | 139.77989 | 4001 ft | 136 kts | 348° |
| 2026-05-04 15:59 | 35.32272 | 139.78282 | 3458 ft | 149 kts | 24° |
| 2026-05-04 15:59 | 35.33099 | 139.78967 | 3104 ft | 137 kts | 25° |
| 2026-05-04 16:00 | 35.33886 | 139.79617 | 2599 ft | 136 kts | 22° |
| 2026-05-04 16:00 | 35.34658 | 139.80238 | 2183 ft | 126 kts | 20° |
| 2026-05-04 16:00 | 35.35396 | 139.80819 | 2040 ft | 126 kts | 19° |
| 2026-05-04 16:00 | 35.36143 | 139.81388 | 1993 ft | 128 kts | 18° |
| 2026-05-04 16:01 | 35.36886 | 139.81958 | 1981 ft | 127 kts | 18° |
| 2026-05-04 16:01 | 35.37637 | 139.82532 | 1974 ft | 127 kts | 19° |
| 2026-05-04 16:01 | 35.38385 | 139.83109 | 1974 ft | 127 kts | 19° |
| 2026-05-04 16:01 | 35.39135 | 139.83688 | 1974 ft | 127 kts | 19° |
| 2026-05-04 16:02 | 35.39884 | 139.84268 | 1978 ft | 127 kts | 19° |
| 2026-05-04 16:02 | 35.40641 | 139.84801 | 1977 ft | 123 kts | 11° |
| 2026-05-04 16:02 | 35.42249 | 139.85171 | 1978 ft | 117 kts | 351° |
| 2026-05-04 16:03 | 35.43074 | 139.85143 | 1973 ft | 117 kts | 352° |
| 2026-05-04 16:03 | 35.43873 | 139.85118 | 1973 ft | 115 kts | 347° |
| 2026-05-04 16:03 | 35.44639 | 139.84868 | 1974 ft | 114 kts | 335° |
| 2026-05-04 16:03 | 35.45353 | 139.84450 | 1936 ft | 114 kts | 331° |
| 2026-05-04 16:04 | 35.46039 | 139.83978 | 1805 ft | 114 kts | 330° |
| 2026-05-04 16:04 | 35.47391 | 139.83023 | 1332 ft | 117 kts | 330° |
| 2026-05-04 16:04 | 35.48070 | 139.82536 | 1074 ft | 108 kts | 331° |
| 2026-05-04 16:05 | 35.48755 | 139.82052 | 1052 ft | 120 kts | 331° |
| 2026-05-04 16:05 | 35.49463 | 139.81547 | 934 ft | 117 kts | 331° |
| 2026-05-04 16:05 | 35.50863 | 139.80554 | 679 ft | 120 kts | 331° |
| 2026-05-04 16:06 | 35.51580 | 139.80043 | 530 ft | 115 kts | 330° |
| 2026-05-04 16:06 | 35.53407 | 139.78746 | 124 ft | 114 kts | 329° |
| 2026-05-04 16:07 | 35.54303 | 139.78106 | 31 ft | 97 kts | 329° |
| 2026-05-04 16:07 | 35.54645 | 139.77860 | 31 ft | 2 kts | 330° |
| 2026-05-04 16:08 | 35.54667 | 139.77845 | 30 ft | 9 kts | 330° |
| 2026-05-04 16:08 | 35.54952 | 139.77497 | 29 ft | 20 kts | 297° |
| 2026-05-04 16:09 | 35.55122 | 139.77270 | 29 ft | 17 kts | 329° |
| 2026-05-04 16:09 | 35.55314 | 139.77129 | 29 ft | 15 kts | 315° |
| 2026-05-04 16:10 | 35.55266 | 139.76952 | 29 ft | 12 kts | 239° |
| 2026-05-04 16:11 | 35.55124 | 139.76652 | 29 ft | 15 kts | 238° |
| 2026-05-04 16:11 | 35.55040 | 139.76599 | 29 ft | 14 kts | 186° |
| 2026-05-04 16:12 | 35.55028 | 139.76856 | 29 ft | 13 kts | 61° |
| 2026-05-04 16:12 | 35.55031 | 139.77026 | 29 ft | 0 kts | 146° |
| 2026-05-04 16:13 | 35.55040 | 139.77018 | 29 ft | 1 kts | 149° |
| 2026-05-04 16:13 | 35.55037 | 139.77022 | 29 ft | 0 kts | 148° |